Time;durP1;ratioP1;P1;durP2;ratioP2;P2;SDS_P1;SDS_P2;PMS_P1;PMS_P2;Temp;Humidity;BMP_temperature;BMP_pressure;BME280_temperature;BME280_humidity;BME280_pressure;Samples;Min_cycle;Max_cycle;Signal;HPM_P1;HPM_P2
2021/08/24 00:01:36;;;;;;;8.65;7.85;;;;;;;;;;5113831;28;20032;-75
2021/08/24 00:04:02;;;;;;;7.50;4.45;;;;;;;;;;5113909;28;20026;-75
2021/08/24 00:06:28;;;;;;;9.23;7.25;;;;;;;;;;5095577;28;20024;-75
2021/08/24 00:08:53;;;;;;;8.50;7.68;;;;;;;;;;5113749;28;20084;-76
2021/08/24 00:11:19;;;;;;;9.15;5.35;;;;;;;;;;5095771;28;20391;-75
2021/08/24 00:13:45;;;;;;;7.20;5.90;;;;;;;;;;5113848;28;20028;-75
2021/08/24 00:16:10;;;;;;;8.63;5.30;;;;;;;;;;5113793;28;20058;-75
2021/08/24 00:18:36;;;;;;;7.90;5.88;;;;;;;;;;5095584;28;20031;-74
2021/08/24 00:21:03;;;;;;;9.00;7.53;;;;;;;;;;5113525;28;20054;-75
2021/08/24 00:23:29;;;;;;;8.00;7.10;;;;;;;;;;5095310;28;20106;-75
2021/08/24 00:25:57;;;;;;;7.28;4.95;;;;;;;;;;5113588;28;20463;-76
2021/08/24 00:28:23;;;;;;;7.00;3.67;;;;;;;;;;5113818;28;20410;-75
2021/08/24 00:30:48;;;;;;;6.32;4.75;;;;;;;;;;5113592;28;20023;-75
2021/08/24 00:33:15;;;;;;;10.13;4.57;;;;;;;;;;5095449;28;20119;-75
2021/08/24 00:35:42;;;;;;;7.93;5.05;;;;;;;;;;5114321;28;20344;-76
2021/08/24 00:38:10;;;;;;;9.18;8.27;;;;;;;;;;5095264;28;20027;-75
2021/08/24 00:40:37;;;;;;;8.95;5.13;;;;;;;;;;5113796;28;20112;-75
2021/08/24 00:43:08;;;;;;;6.25;4.45;;;;;;;;;;5113403;28;20024;-79
2021/08/24 00:45:40;;;;;;;8.60;6.93;;;;;;;;;;5095181;28;20028;-75
2021/08/24 00:48:07;;;;;;;7.22;3.30;;;;;;;;;;5113941;28;20028;-80
2021/08/24 00:50:37;;;;;;;8.35;5.22;;;;;;;;;;5113337;28;20118;-77
2021/08/24 00:53:10;;;;;;;5.82;3.25;;;;;;;;;;5113401;28;20031;-76
2021/08/24 00:55:40;;;;;;;8.48;3.83;;;;;;;;;;5095169;28;20364;-80
2021/08/24 00:58:10;;;;;;;7.13;5.00;;;;;;;;;;5113522;28;20030;-76
2021/08/24 01:00:37;;;;;;;9.75;5.32;;;;;;;;;;5119039;28;20043;-75
2021/08/24 01:03:07;;;;;;;7.57;4.65;;;;;;;;;;5113716;28;20024;-75
2021/08/24 01:05:35;;;;;;;8.63;4.00;;;;;;;;;;5120084;28;20020;-75
2021/08/24 01:08:12;;;;;;;10.48;5.15;;;;;;;;;;5124901;28;20023;-75
2021/08/24 01:10:50;;;;;;;8.45;5.70;;;;;;;;;;5122120;28;20052;-76
2021/08/24 01:13:32;;;;;;;6.10;3.97;;;;;;;;;;5126850;28;20023;-76
2021/08/24 01:16:18;;;;;;;8.45;7.25;;;;;;;;;;5120378;28;20047;-75
2021/08/24 01:19:05;;;;;;;6.07;3.25;;;;;;;;;;5099936;28;20493;-76
2021/08/24 01:22:16;;;;;;;8.18;4.38;;;;;;;;;;5117414;28;20035;-75
2021/08/24 01:25:01;;;;;;;8.23;4.90;;;;;;;;;;5116675;28;20024;-75
2021/08/24 01:27:29;;;;;;;6.10;3.33;;;;;;;;;;5116961;28;20382;-76
2021/08/24 01:30:20;;;;;;;10.25;5.75;;;;;;;;;;5116742;28;20028;-75
2021/08/24 01:33:05;;;;;;;5.93;3.33;;;;;;;;;;5116363;28;20035;-76
2021/08/24 01:35:57;;;;;;;10.30;4.65;;;;;;;;;;5098775;28;20028;-75
2021/08/24 01:38:32;;;;;;;5.43;3.70;;;;;;;;;;5116375;28;20502;-75
2021/08/24 01:40:57;;;;;;;8.20;4.07;;;;;;;;;;5116245;28;20039;-76
2021/08/24 01:43:41;;;;;;;7.80;2.78;;;;;;;;;;5116311;28;20027;-75
2021/08/24 01:46:18;;;;;;;6.45;3.72;;;;;;;;;;5116167;28;20099;-75
2021/08/24 01:48:48;;;;;;;9.50;4.25;;;;;;;;;;5116419;28;20038;-75
2021/08/24 01:51:21;;;;;;;7.28;4.68;;;;;;;;;;5115898;28;20130;-75
2021/08/24 01:54:27;;;;;;;8.02;4.28;;;;;;;;;;5116299;28;20034;-75
2021/08/24 01:56:54;;;;;;;8.02;4.00;;;;;;;;;;5115985;28;20506;-75
2021/08/24 01:59:26;;;;;;;7.43;6.60;;;;;;;;;;5115781;28;20027;-76
2021/08/24 02:02:20;;;;;;;6.85;3.63;;;;;;;;;;5097494;28;20081;-75
2021/08/24 02:04:57;;;;;;;6.90;4.40;;;;;;;;;;5113229;28;20100;-75
2021/08/24 02:07:27;;;;;;;7.72;4.13;;;;;;;;;;5115872;28;20019;-75
2021/08/24 02:09:58;;;;;;;6.60;4.25;;;;;;;;;;5116247;28;20123;-75
2021/08/24 02:12:26;;;;;;;7.07;3.15;;;;;;;;;;5116239;28;20016;-75
2021/08/24 02:14:52;;;;;;;7.40;4.95;;;;;;;;;;5115608;28;20035;-75
2021/08/24 02:17:20;;;;;;;6.38;4.32;;;;;;;;;;5115606;28;20047;-75
2021/08/24 02:20:15;;;;;;;8.98;3.45;;;;;;;;;;5115337;28;20043;-76
2021/08/24 02:22:43;;;;;;;7.57;4.10;;;;;;;;;;5104431;28;20495;-75
2021/08/24 02:25:18;;;;;;;5.38;3.08;;;;;;;;;;5097159;28;20176;-75
2021/08/24 02:27:52;;;;;;;6.50;4.45;;;;;;;;;;5115664;28;20042;-77
2021/08/24 02:30:18;;;;;;;5.55;3.42;;;;;;;;;;5115329;28;20023;-76
2021/08/24 02:32:47;;;;;;;6.85;6.15;;;;;;;;;;5115328;28;20360;-75
2021/08/24 02:35:32;;;;;;;6.50;3.25;;;;;;;;;;5115252;28;20375;-76
2021/08/24 02:38:37;;;;;;;5.97;4.55;;;;;;;;;;5115403;28;20032;-75
2021/08/24 02:41:09;;;;;;;6.13;3.08;;;;;;;;;;5015868;28;20057;-77
2021/08/24 02:43:48;;;;;;;7.07;4.13;;;;;;;;;;5032884;28;20025;-76
2021/08/24 02:46:23;;;;;;;6.38;4.28;;;;;;;;;;5015747;28;20108;-75
2021/08/24 02:48:56;;;;;;;5.70;4.00;;;;;;;;;;5032313;28;20029;-76
2021/08/24 02:51:22;;;;;;;7.63;3.58;;;;;;;;;;5033157;28;20053;-75
2021/08/24 02:54:12;;;;;;;6.68;3.05;;;;;;;;;;5032475;28;20025;-75
2021/08/24 02:56:38;;;;;;;5.32;2.85;;;;;;;;;;5015740;28;20474;-75
2021/08/24 02:59:04;;;;;;;9.98;4.35;;;;;;;;;;5032165;28;20044;-76
2021/08/24 03:01:29;;;;;;;8.07;4.22;;;;;;;;;;5032132;28;20033;-76
2021/08/24 03:03:55;;;;;;;6.13;3.88;;;;;;;;;;5032131;28;20113;-77
2021/08/24 03:06:21;;;;;;;11.77;3.35;;;;;;;;;;5015442;28;20085;-76
2021/08/24 03:08:48;;;;;;;5.32;3.22;;;;;;;;;;5032235;28;20034;-76
2021/08/24 03:11:18;;;;;;;11.35;3.08;;;;;;;;;;5054990;28;20028;-77
2021/08/24 03:13:54;;;;;;;8.00;4.68;;;;;;;;;;5096412;28;20019;-75
2021/08/24 03:16:28;;;;;;;8.73;3.35;;;;;;;;;;5096295;28;20012;-77
2021/08/24 03:18:58;;;;;;;7.00;3.50;;;;;;;;;;5114862;28;20035;-76
2021/08/24 03:21:32;;;;;;;18.13;5.22;;;;;;;;;;5114264;28;20036;-76
2021/08/24 03:23:58;;;;;;;7.80;3.15;;;;;;;;;;5114749;28;20092;-76
2021/08/24 03:26:29;;;;;;;7.85;3.50;;;;;;;;;;5095761;28;20063;-75
2021/08/24 03:28:55;;;;;;;5.95;3.53;;;;;;;;;;5115088;28;20475;-76
2021/08/24 03:31:22;;;;;;;6.22;2.28;;;;;;;;;;5114365;28;20140;-77
2021/08/24 03:33:48;;;;;;;6.07;2.90;;;;;;;;;;5114904;28;20034;-76
2021/08/24 03:36:14;;;;;;;9.88;6.10;;;;;;;;;;5114553;28;20436;-76
2021/08/24 03:38:42;;;;;;;6.90;2.55;;;;;;;;;;5115834;28;20081;-75
2021/08/24 03:41:10;;;;;;;6.38;3.10;;;;;;;;;;5115045;28;20042;-76
2021/08/24 03:43:36;;;;;;;5.82;3.10;;;;;;;;;;5114517;28;20027;-77
2021/08/24 03:46:03;;;;;;;6.63;5.07;;;;;;;;;;5113995;28;20158;-75
2021/08/24 03:48:28;;;;;;;15.70;4.38;;;;;;;;;;5114194;28;20052;-75
2021/08/24 03:50:54;;;;;;;9.60;4.80;;;;;;;;;;5095649;28;20511;-76
2021/08/24 03:53:20;;;;;;;9.30;4.78;;;;;;;;;;5114165;28;20107;-75
2021/08/24 03:55:45;;;;;;;8.27;3.38;;;;;;;;;;5114534;28;20020;-75
2021/08/24 03:58:12;;;;;;;6.72;4.95;;;;;;;;;;5113991;28;20024;-75
2021/08/24 04:00:42;;;;;;;5.35;3.65;;;;;;;;;;5114461;28;20035;-75
2021/08/24 04:03:08;;;;;;;5.25;2.92;;;;;;;;;;5113915;28;20016;-75
2021/08/24 04:05:33;;;;;;;6.05;4.07;;;;;;;;;;5113878;28;20026;-75
2021/08/24 04:07:59;;;;;;;5.60;3.97;;;;;;;;;;5114068;28;20015;-75
2021/08/24 04:10:25;;;;;;;9.77;4.18;;;;;;;;;;5113890;28;20098;-74
2021/08/24 04:12:51;;;;;;;8.95;6.30;;;;;;;;;;5119077;28;20040;-76
2021/08/24 04:15:16;;;;;;;8.85;3.63;;;;;;;;;;5095493;28;20024;-79
2021/08/24 04:17:42;;;;;;;16.15;3.55;;;;;;;;;;5113759;28;20030;-75
2021/08/24 04:20:11;;;;;;;7.65;3.90;;;;;;;;;;5113866;28;20129;-75
2021/08/24 04:22:40;;;;;;;9.80;6.63;;;;;;;;;;5095457;28;20050;-75
2021/08/24 04:25:06;;;;;;;9.38;3.08;;;;;;;;;;5113703;28;20055;-76
2021/08/24 04:27:32;;;;;;;7.10;3.70;;;;;;;;;;5113702;28;20040;-79
2021/08/24 04:29:57;;;;;;;10.20;5.00;;;;;;;;;;5113628;28;20024;-83
2021/08/24 04:32:26;;;;;;;7.72;3.13;;;;;;;;;;5113590;28;20019;-78
2021/08/24 04:34:52;;;;;;;8.50;4.93;;;;;;;;;;5113899;28;20023;-84
2021/08/24 04:37:18;;;;;;;8.32;6.88;;;;;;;;;;5095537;28;20034;-80
2021/08/24 04:39:44;;;;;;;67.18;30.40;;;;;;;;;;5120003;28;20026;-81
2021/08/24 04:42:10;;;;;;;71.63;35.92;;;;;;;;;;5117491;28;20410;-83
2021/08/24 04:44:35;;;;;;;10.00;5.40;;;;;;;;;;5120349;28;20043;-82
2021/08/24 04:47:01;;;;;;;715.05;316.73;;;;;;;;;;5117502;28;20502;-86
2021/08/24 04:49:27;;;;;;;82.75;33.30;;;;;;;;;;5117423;28;20040;-87
2021/08/24 04:51:52;;;;;;;137.13;58.85;;;;;;;;;;5118021;28;20016;-81
2021/08/24 04:54:18;;;;;;;200.93;102.90;;;;;;;;;;5117595;28;20548;-81
2021/08/24 04:56:44;;;;;;;199.88;103.47;;;;;;;;;;5098849;28;20019;-80
2021/08/24 04:59:10;;;;;;;167.10;90.97;;;;;;;;;;5117135;28;20066;-81
2021/08/24 05:01:36;;;;;;;392.80;199.57;;;;;;;;;;5116930;28;20467;-82
2021/08/24 05:04:02;;;;;;;508.88;272.20;;;;;;;;;;5101389;28;20038;-84
2021/08/24 05:06:28;;;;;;;568.80;346.08;;;;;;;;;;5117068;28;20378;-87
2021/08/24 05:08:53;;;;;;;59.08;35.15;;;;;;;;;;5116885;28;20103;-82
2021/08/24 05:11:19;;;;;;;20.90;14.75;;;;;;;;;;5117413;28;20114;-84
2021/08/24 05:13:46;;;;;;;10.70;5.90;;;;;;;;;;5119098;28;20020;-81
2021/08/24 05:16:12;;;;;;;12.77;6.78;;;;;;;;;;5117486;28;20024;-82
2021/08/24 05:18:39;;;;;;;7.07;4.80;;;;;;;;;;5099201;28;20024;-81
2021/08/24 05:21:13;;;;;;;8.73;4.95;;;;;;;;;;5098794;28;20116;-83
2021/08/24 05:23:39;;;;;;;14.63;7.60;;;;;;;;;;5116915;28;20066;-79
2021/08/24 05:26:10;;;;;;;10.82;5.30;;;;;;;;;;5116509;28;20024;-80
2021/08/24 05:28:36;;;;;;;7.63;4.25;;;;;;;;;;5116479;28;20030;-84
2021/08/24 05:31:02;;;;;;;15.20;8.32;;;;;;;;;;5116439;28;20449;-79
2021/08/24 05:33:28;;;;;;;9.43;5.57;;;;;;;;;;5116440;28;20072;-79
2021/08/24 05:35:53;;;;;;;15.00;7.13;;;;;;;;;;5116287;28;20043;-80
2021/08/24 05:38:19;;;;;;;9.90;4.85;;;;;;;;;;5116872;28;20375;-79
2021/08/24 05:40:45;;;;;;;8.95;4.03;;;;;;;;;;5116393;28;20374;-80
2021/08/24 05:43:10;;;;;;;12.77;5.50;;;;;;;;;;5116166;28;20399;-78
2021/08/24 05:45:36;;;;;;;8.73;3.50;;;;;;;;;;5116184;28;20483;-79
2021/08/24 05:48:02;;;;;;;6.32;3.08;;;;;;;;;;5116855;28;20413;-79
2021/08/24 05:50:27;;;;;;;5.80;2.88;;;;;;;;;;5115454;28;20075;-82
2021/08/24 05:52:54;;;;;;;5.97;3.55;;;;;;;;;;5116038;28;20051;-79
2021/08/24 05:55:19;;;;;;;7.60;4.13;;;;;;;;;;5136587;28;20037;-79
2021/08/24 05:57:45;;;;;;;7.20;4.43;;;;;;;;;;5138233;28;20031;-78
2021/08/24 06:00:11;;;;;;;11.57;5.32;;;;;;;;;;5136738;28;20028;-80
2021/08/24 06:02:38;;;;;;;10.00;5.47;;;;;;;;;;5123329;28;20431;-80
2021/08/24 06:05:06;;;;;;;11.55;4.28;;;;;;;;;;5116448;28;20372;-79
2021/08/24 06:07:32;;;;;;;10.88;4.20;;;;;;;;;;5116175;28;20024;-79
2021/08/24 06:09:59;;;;;;;6.88;4.07;;;;;;;;;;5097332;28;20391;-80
2021/08/24 06:12:25;;;;;;;6.13;2.83;;;;;;;;;;5115727;28;20076;-78
2021/08/24 06:14:52;;;;;;;8.10;3.22;;;;;;;;;;5115739;28;20019;-80
2021/08/24 06:17:17;;;;;;;8.32;4.00;;;;;;;;;;5115571;28;20023;-79
2021/08/24 06:19:43;;;;;;;5.75;2.72;;;;;;;;;;5115382;28;20043;-83
2021/08/24 06:22:09;;;;;;;7.65;3.95;;;;;;;;;;5115529;28;20039;-79
2021/08/24 06:24:36;;;;;;;6.70;3.58;;;;;;;;;;5115355;28;20031;-79
2021/08/24 06:27:03;;;;;;;7.60;4.35;;;;;;;;;;5115492;28;20020;-79
2021/08/24 06:29:28;;;;;;;7.60;3.90;;;;;;;;;;5115498;28;20085;-80
2021/08/24 06:31:59;;;;;;;16.02;7.15;;;;;;;;;;5115307;28;20487;-79
2021/08/24 06:34:26;;;;;;;36.60;20.50;;;;;;;;;;5098031;28;20032;-79
2021/08/24 06:36:52;;;;;;;17.77;8.93;;;;;;;;;;5115360;28;20016;-80
2021/08/24 06:39:18;;;;;;;10.43;5.85;;;;;;;;;;5115112;28;20019;-80
2021/08/24 06:41:44;;;;;;;10.43;4.55;;;;;;;;;;5115383;28;20028;-81
2021/08/24 06:44:11;;;;;;;6.35;1.58;;;;;;;;;;5114906;28;20020;-80
2021/08/24 06:46:37;;;;;;;8.57;2.95;;;;;;;;;;5115146;28;20364;-76
2021/08/24 06:49:02;;;;;;;7.47;3.38;;;;;;;;;;5114921;28;20057;-79
2021/08/24 06:51:28;;;;;;;3.50;1.30;;;;;;;;;;5115133;28;20032;-78
2021/08/24 06:53:54;;;;;;;5.45;1.92;;;;;;;;;;5114835;28;20028;-80
2021/08/24 06:56:20;;;;;;;11.15;2.63;;;;;;;;;;5115056;28;20080;-80
2021/08/24 06:58:47;;;;;;;6.53;1.45;;;;;;;;;;5114798;28;20027;-79
2021/08/24 07:01:17;;;;;;;5.50;1.75;;;;;;;;;;5113803;28;20107;-78
2021/08/24 07:03:43;;;;;;;5.28;1.08;;;;;;;;;;5115021;28;20054;-81
2021/08/24 07:06:10;;;;;;;7.38;2.47;;;;;;;;;;5096343;28;20048;-82
2021/08/24 07:08:35;;;;;;;5.97;2.17;;;;;;;;;;5114649;28;20053;-84
2021/08/24 07:11:01;;;;;;;6.60;2.03;;;;;;;;;;5096285;28;20020;-80
2021/08/24 07:13:30;;;;;;;3.42;1.75;;;;;;;;;;5114583;28;20076;-80
2021/08/24 07:15:56;;;;;;;5.28;1.67;;;;;;;;;;5114566;28;20386;-84
2021/08/24 07:18:22;;;;;;;5.60;2.13;;;;;;;;;;5114418;28;20020;-80
2021/08/24 07:20:50;;;;;;;4.93;0.95;;;;;;;;;;5114330;28;20092;-80
2021/08/24 07:23:16;;;;;;;4.63;1.90;;;;;;;;;;5114319;28;20559;-79
2021/08/24 07:25:41;;;;;;;5.68;1.05;;;;;;;;;;5095995;28;20059;-82
2021/08/24 07:28:10;;;;;;;5.97;1.55;;;;;;;;;;5114353;28;20031;-79
2021/08/24 07:30:38;;;;;;;3.33;1.15;;;;;;;;;;5095878;28;20202;-79
2021/08/24 07:33:04;;;;;;;3.17;1.15;;;;;;;;;;5095940;28;20019;-84
2021/08/24 07:35:30;;;;;;;6.40;1.17;;;;;;;;;;5114155;28;20482;-80
2021/08/24 07:37:56;;;;;;;4.05;2.45;;;;;;;;;;5095809;28;20027;-79
2021/08/24 07:40:22;;;;;;;5.13;1.27;;;;;;;;;;5113943;28;20036;-79
2021/08/24 07:42:48;;;;;;;6.05;1.45;;;;;;;;;;5114018;28;20031;-80
2021/08/24 07:45:14;;;;;;;11.20;1.48;;;;;;;;;;5114107;28;20106;-83
2021/08/24 07:47:40;;;;;;;3.83;1.35;;;;;;;;;;5114044;28;20023;-80
2021/08/24 07:50:06;;;;;;;4.05;2.67;;;;;;;;;;5114126;28;20051;-81
2021/08/24 07:52:32;;;;;;;3.58;1.25;;;;;;;;;;5095763;28;20472;-84
2021/08/24 07:54:58;;;;;;;5.72;1.73;;;;;;;;;;5114274;28;20027;-82
2021/08/24 07:57:23;;;;;;;4.50;0.98;;;;;;;;;;5114227;28;20027;-79
2021/08/24 07:59:49;;;;;;;6.93;3.22;;;;;;;;;;5113983;28;20024;-78
2021/08/24 08:02:17;;;;;;;4.85;1.20;;;;;;;;;;5113764;28;20027;-78
2021/08/24 08:04:44;;;;;;;8.88;2.28;;;;;;;;;;5095843;28;20383;-76
2021/08/24 08:07:10;;;;;;;7.00;3.42;;;;;;;;;;5095428;28;20019;-81
2021/08/24 08:09:36;;;;;;;4.15;1.20;;;;;;;;;;5117059;28;20031;-77
2021/08/24 08:12:02;;;;;;;6.30;3.50;;;;;;;;;;5116552;28;20027;-78
2021/08/24 08:14:28;;;;;;;4.00;1.33;;;;;;;;;;5121984;28;20020;-77
2021/08/24 08:16:54;;;;;;;5.15;3.33;;;;;;;;;;5122418;28;20093;-77
2021/08/24 08:19:20;;;;;;;4.65;1.58;;;;;;;;;;5122486;28;20033;-78
2021/08/24 08:21:46;;;;;;;4.20;3.35;;;;;;;;;;5118090;28;20113;-78
2021/08/24 08:24:12;;;;;;;5.20;1.27;;;;;;;;;;5116387;28;20084;-78
2021/08/24 08:26:38;;;;;;;4.15;1.27;;;;;;;;;;5117550;28;20043;-77
2021/08/24 08:29:09;;;;;;;5.15;1.17;;;;;;;;;;5118825;28;20028;-81
2021/08/24 08:31:42;;;;;;;5.97;1.38;;;;;;;;;;5104331;28;20027;-80
2021/08/24 08:34:11;;;;;;;5.30;3.10;;;;;;;;;;5109658;28;20467;-78
2021/08/24 08:36:48;;;;;;;4.72;1.55;;;;;;;;;;5123204;28;20028;-80
2021/08/24 08:39:15;;;;;;;5.00;2.33;;;;;;;;;;5110391;28;20024;-83
2021/08/24 08:42:01;;;;;;;4.95;2.75;;;;;;;;;;5124296;28;20114;-82
2021/08/24 08:44:42;;;;;;;4.07;1.35;;;;;;;;;;5119714;28;20024;-79
2021/08/24 08:47:54;;;;;;;4.55;2.67;;;;;;;;;;5128619;28;20085;-78
2021/08/24 08:50:46;;;;;;;4.93;1.02;;;;;;;;;;5129364;28;20044;-78
2021/08/24 08:53:17;;;;;;;3.88;0.70;;;;;;;;;;5124108;28;20113;-83
2021/08/24 08:56:01;;;;;;;7.20;1.63;;;;;;;;;;5123818;28;20038;-78
2021/08/24 08:58:58;;;;;;;3.17;1.00;;;;;;;;;;5108346;28;20035;-80
2021/08/24 09:01:37;;;;;;;4.85;1.25;;;;;;;;;;5120987;28;20032;-82
2021/08/24 09:04:17;;;;;;;4.40;3.22;;;;;;;;;;5103386;28;20036;-80
2021/08/24 09:06:48;;;;;;;5.60;2.95;;;;;;;;;;5105098;28;20028;-79
2021/08/24 09:09:20;;;;;;;2.78;1.27;;;;;;;;;;5122505;28;20026;-80
2021/08/24 09:11:49;;;;;;;7.15;1.10;;;;;;;;;;5106929;28;20120;-82
2021/08/24 09:14:40;;;;;;;4.85;1.52;;;;;;;;;;5123642;28;20073;-78
2021/08/24 09:17:44;;;;;;;3.80;1.08;;;;;;;;;;5123550;28;20031;-80
2021/08/24 09:20:23;;;;;;;3.58;0.80;;;;;;;;;;5062332;28;20032;-79
2021/08/24 09:22:50;;;;;;;5.18;1.02;;;;;;;;;;5118764;28;20046;-80
2021/08/24 09:25:44;;;;;;;4.90;1.17;;;;;;;;;;5121152;28;20027;-82
2021/08/24 09:28:45;;;;;;;4.22;1.02;;;;;;;;;;5107572;28;20031;-80
2021/08/24 09:31:21;;;;;;;5.00;1.30;;;;;;;;;;5091767;28;20028;-78
2021/08/24 09:33:48;;;;;;;4.07;2.78;;;;;;;;;;5102510;28;20115;-85
2021/08/24 09:36:15;;;;;;;4.47;3.03;;;;;;;;;;5104823;28;20031;-80
2021/08/24 09:38:59;;;;;;;5.28;1.35;;;;;;;;;;5104874;28;20070;-77
2021/08/24 09:41:35;;;;;;;4.55;1.25;;;;;;;;;;5096481;28;20490;-81
2021/08/24 09:44:24;;;;;;;5.13;2.58;;;;;;;;;;5096093;28;20028;-81
2021/08/24 09:47:01;;;;;;;4.05;1.65;;;;;;;;;;5077576;28;20406;-79
2021/08/24 09:49:34;;;;;;;4.45;0.85;;;;;;;;;;5077445;28;20098;-78
2021/08/24 09:52:05;;;;;;;3.42;1.13;;;;;;;;;;5095757;28;20027;-77
2021/08/24 09:54:42;;;;;;;3.25;0.80;;;;;;;;;;5095701;28;20460;-77
2021/08/24 09:57:11;;;;;;;4.43;0.88;;;;;;;;;;5095678;28;20032;-80
2021/08/24 09:59:47;;;;;;;8.30;3.50;;;;;;;;;;5095345;28;20572;-79
2021/08/24 10:02:46;;;;;;;7.75;1.30;;;;;;;;;;5095479;28;20032;-79
2021/08/24 10:05:15;;;;;;;6.13;1.27;;;;;;;;;;5094314;28;20480;-83
2021/08/24 10:07:45;;;;;;;;;;;;;;;;;;5107134;28;20111;-85
2021/08/24 10:10:23;;;;;;;8.52;2.10;;;;;;;;;;5077121;28;20299;-84
2021/08/24 10:12:52;;;;;;;10.45;1.30;;;;;;;;;;5095430;28;20111;-86
2021/08/24 10:15:20;;;;;;;4.63;3.10;;;;;;;;;;5095155;28;20388;-83
2021/08/24 10:17:46;;;;;;;4.50;1.25;;;;;;;;;;5095165;28;20032;-81
2021/08/24 10:20:22;;;;;;;5.43;1.05;;;;;;;;;;5095010;28;20024;-86
2021/08/24 10:22:51;;;;;;;3.55;1.10;;;;;;;;;;5095329;28;20035;-87
2021/08/24 10:25:35;;;;;;;3.72;0.95;;;;;;;;;;5095325;28;20020;-85
2021/08/24 10:28:12;;;;;;;3.50;1.15;;;;;;;;;;5094956;28;20035;-80
2021/08/24 10:30:46;;;;;;;4.32;1.00;;;;;;;;;;5096464;28;20425;-83
2021/08/24 10:33:22;;;;;;;3.60;1.00;;;;;;;;;;5092625;28;20027;-85
2021/08/24 10:35:54;;;;;;;7.32;0.88;;;;;;;;;;5116264;28;20019;-87
2021/08/24 10:38:37;;;;;;;3.50;0.82;;;;;;;;;;5115884;28;20028;-83
2021/08/24 10:41:16;;;;;;;4.07;1.13;;;;;;;;;;5098323;28;20115;-82
2021/08/24 10:43:52;;;;;;;4.95;2.47;;;;;;;;;;5116653;28;20031;-79
2021/08/24 10:46:18;;;;;;;3.75;2.17;;;;;;;;;;5132559;28;20100;-79
2021/08/24 10:48:44;;;;;;;5.85;0.90;;;;;;;;;;5124053;28;20481;-80
2021/08/24 10:51:19;;;;;;;5.60;2.80;;;;;;;;;;5119636;28;20118;-79
2021/08/24 10:54:00;;;;;;;5.63;0.90;;;;;;;;;;5129014;28;20483;-78
2021/08/24 10:56:33;;;;;;;4.20;0.75;;;;;;;;;;5135287;28;20039;-84
2021/08/24 10:59:01;;;;;;;3.67;1.25;;;;;;;;;;5128818;28;20693;-78
2021/08/24 11:01:37;;;;;;;3.50;0.70;;;;;;;;;;5114645;28;20099;-77
2021/08/24 11:04:18;;;;;;;4.70;1.15;;;;;;;;;;5100854;28;20076;-79
2021/08/24 11:06:56;;;;;;;5.35;2.63;;;;;;;;;;5106458;28;20020;-78
2021/08/24 11:09:30;;;;;;;4.18;1.13;;;;;;;;;;5092683;28;20509;-78
2021/08/24 11:12:08;;;;;;;4.70;1.33;;;;;;;;;;5115075;28;20034;-78
2021/08/24 11:14:59;;;;;;;3.53;1.30;;;;;;;;;;5114522;28;20019;-77
2021/08/24 11:17:46;;;;;;;6.25;1.50;;;;;;;;;;5089303;28;20024;-76
2021/08/24 11:20:31;;;;;;;3.63;1.05;;;;;;;;;;5096183;28;20063;-77
2021/08/24 11:23:10;;;;;;;3.90;2.55;;;;;;;;;;5076306;28;20434;-77
2021/08/24 11:25:49;;;;;;;6.60;1.10;;;;;;;;;;5095175;28;20055;-76
2021/08/24 11:28:42;;;;;;;5.18;2.25;;;;;;;;;;5076535;28;20415;-78
2021/08/24 11:31:21;;;;;;;7.85;1.17;;;;;;;;;;5098814;28;20026;-76
2021/08/24 11:33:59;;;;;;;11.52;4.05;;;;;;;;;;5106103;28;20027;-76
2021/08/24 11:36:52;;;;;;;21.48;13.23;;;;;;;;;;5096082;28;20024;-76
2021/08/24 11:39:23;;;;;;;17.95;9.10;;;;;;;;;;5114446;28;20030;-76
2021/08/24 11:41:53;;;;;;;5.13;1.02;;;;;;;;;;5114427;28;20031;-77
2021/08/24 11:44:26;;;;;;;15.23;6.85;;;;;;;;;;5114223;28;20055;-77
2021/08/24 11:47:05;;;;;;;11.38;4.05;;;;;;;;;;5113972;28;20041;-77
2021/08/24 11:50:20;;;;;;;4.95;1.05;;;;;;;;;;5107729;28;20075;-80
2021/08/24 11:52:58;;;;;;;6.00;1.08;;;;;;;;;;5097783;28;20040;-78
2021/08/24 11:55:38;;;;;;;5.68;1.25;;;;;;;;;;5114218;28;20020;-78
2021/08/24 11:58:20;;;;;;;11.23;5.68;;;;;;;;;;5113964;28;20055;-77
2021/08/24 12:00:52;;;;;;;5.10;1.23;;;;;;;;;;5095516;28;20027;-81
2021/08/24 12:03:21;;;;;;;6.07;1.40;;;;;;;;;;5113744;28;20034;-77
2021/08/24 12:05:53;;;;;;;4.72;1.17;;;;;;;;;;5113553;28;20027;-77
2021/08/24 12:08:24;;;;;;;3.15;0.98;;;;;;;;;;5113802;28;20051;-79
2021/08/24 12:10:50;;;;;;;2.92;0.98;;;;;;;;;;5113937;28;20030;-78
2021/08/24 12:13:28;;;;;;;2.55;0.80;;;;;;;;;;5113703;28;20031;-77
2021/08/24 12:16:21;;;;;;;4.88;2.33;;;;;;;;;;5113771;28;20090;-79
2021/08/24 12:18:53;;;;;;;3.35;1.25;;;;;;;;;;5113909;28;20031;-79
2021/08/24 12:21:46;;;;;;;5.75;0.90;;;;;;;;;;5113618;28;20546;-78
2021/08/24 12:24:24;;;;;;;5.10;1.10;;;;;;;;;;5113833;28;20027;-80
2021/08/24 12:26:56;;;;;;;7.80;1.00;;;;;;;;;;5113638;28;20035;-78
2021/08/24 12:29:36;;;;;;;7.70;0.85;;;;;;;;;;5113567;28;20032;-77
2021/08/24 12:32:08;;;;;;;4.00;2.53;;;;;;;;;;5114192;28;20367;-77
2021/08/24 12:34:34;;;;;;;5.65;0.88;;;;;;;;;;5113581;28;20107;-79
2021/08/24 12:37:05;;;;;;;5.22;0.93;;;;;;;;;;5112405;28;20149;-80
2021/08/24 12:39:41;;;;;;;5.70;1.30;;;;;;;;;;5112386;28;20020;-81
2021/08/24 12:42:30;;;;;;;4.47;1.13;;;;;;;;;;5113478;28;20479;-79
2021/08/24 12:44:59;;;;;;;5.45;1.10;;;;;;;;;;5113420;28;20047;-80
2021/08/24 12:47:30;;;;;;;3.20;0.77;;;;;;;;;;5113386;28;20059;-80
2021/08/24 12:50:19;;;;;;;4.40;0.80;;;;;;;;;;5113009;28;20039;-77
2021/08/24 12:52:50;;;;;;;5.00;1.25;;;;;;;;;;5075655;28;20110;-78
2021/08/24 12:55:31;;;;;;;4.03;1.05;;;;;;;;;;5113389;28;20520;-78
2021/08/24 12:58:14;;;;;;;6.10;0.80;;;;;;;;;;5113345;28;20019;-79
2021/08/24 13:00:43;;;;;;;2.95;0.80;;;;;;;;;;5116183;28;20032;-76
2021/08/24 13:03:27;;;;;;;4.78;0.90;;;;;;;;;;5116971;28;20035;-76
2021/08/24 13:06:20;;;;;;;2.72;0.60;;;;;;;;;;5116982;28;20055;-77
2021/08/24 13:08:48;;;;;;;3.00;1.00;;;;;;;;;;5098700;28;20065;-77
2021/08/24 13:11:31;;;;;;;2.75;0.70;;;;;;;;;;5116774;28;20047;-77
2021/08/24 13:14:00;;;;;;;2.85;0.57;;;;;;;;;;5117090;28;20471;-77
2021/08/24 13:16:31;;;;;;;3.85;0.80;;;;;;;;;;5116760;28;20028;-79
2021/08/24 13:18:58;;;;;;;5.32;1.35;;;;;;;;;;5117977;28;20482;-80
2021/08/24 13:21:47;;;;;;;5.18;1.08;;;;;;;;;;5117031;28;20028;-82
2021/08/24 13:24:23;;;;;;;3.83;1.35;;;;;;;;;;5106079;28;20031;-81
2021/08/24 13:26:55;;;;;;;5.65;1.40;;;;;;;;;;5098367;28;20047;-81
2021/08/24 13:29:25;;;;;;;4.25;1.25;;;;;;;;;;5116536;28;20095;-80
2021/08/24 13:32:03;;;;;;;5.95;1.33;;;;;;;;;;5098280;28;20471;-80
2021/08/24 13:34:37;;;;;;;8.25;3.65;;;;;;;;;;5098989;28;20386;-80
2021/08/24 13:37:03;;;;;;;3.88;1.42;;;;;;;;;;5116568;28;20027;-87
2021/08/24 13:39:29;;;;;;;4.60;1.75;;;;;;;;;;5116424;28;20051;-80
2021/08/24 13:41:58;;;;;;;6.15;1.40;;;;;;;;;;5116529;28;20471;-78
2021/08/24 13:44:26;;;;;;;;;;;;;;;;;;5091431;28;20042;-79
2021/08/24 13:47:05;;;;;;;5.57;1.73;;;;;;;;;;5106396;28;20388;-79
2021/08/24 13:49:32;;;;;;;6.30;3.35;;;;;;;;;;5106722;28;20047;-77
2021/08/24 13:52:01;;;;;;;5.70;2.45;;;;;;;;;;5095762;28;20028;-77
2021/08/24 13:54:31;;;;;;;5.90;2.47;;;;;;;;;;5095620;28;20032;-78
2021/08/24 13:56:59;;;;;;;7.30;2.13;;;;;;;;;;5095602;28;20028;-76
2021/08/24 13:59:32;;;;;;;7.00;2.55;;;;;;;;;;5095602;28;20371;-77
2021/08/24 14:02:00;;;;;;;6.47;2.30;;;;;;;;;;5095450;28;20107;-77
2021/08/24 14:04:41;;;;;;;6.88;1.90;;;;;;;;;;5095553;28;20024;-76
2021/08/24 14:07:11;;;;;;;6.38;2.20;;;;;;;;;;5095412;28;20473;-75
2021/08/24 14:09:59;;;;;;;8.88;2.35;;;;;;;;;;5095369;28;20055;-75
2021/08/24 14:12:34;;;;;;;14.90;5.18;;;;;;;;;;5095390;28;20017;-75
2021/08/24 14:15:14;;;;;;;6.85;2.75;;;;;;;;;;5095329;28;20471;-77
2021/08/24 14:17:47;;;;;;;10.82;2.47;;;;;;;;;;5094184;28;20035;-75
2021/08/24 14:20:30;;;;;;;7.18;2.47;;;;;;;;;;5077052;28;20103;-75
2021/08/24 14:23:21;;;;;;;5.70;3.72;;;;;;;;;;5095151;28;20386;-76
2021/08/24 14:25:51;;;;;;;8.50;4.32;;;;;;;;;;5095151;28;20024;-75
2021/08/24 14:28:40;;;;;;;7.40;2.67;;;;;;;;;;5094969;28;20129;-77
2021/08/24 14:31:14;;;;;;;7.15;2.78;;;;;;;;;;5095253;28;20387;-77
2021/08/24 14:33:44;;;;;;;12.55;5.53;;;;;;;;;;5095056;28;20367;-75
2021/08/24 14:36:35;;;;;;;7.00;3.67;;;;;;;;;;5094884;28;20030;-76
2021/08/24 14:39:17;;;;;;;9.85;3.25;;;;;;;;;;5094892;28;20016;-76
2021/08/24 14:42:01;;;;;;;8.73;5.38;;;;;;;;;;5094847;28;20032;-76
2021/08/24 14:44:38;;;;;;;10.63;3.88;;;;;;;;;;5094827;28;20056;-76
2021/08/24 14:47:12;;;;;;;7.55;3.22;;;;;;;;;;5094716;28;20114;-75
2021/08/24 14:49:47;;;;;;;8.25;2.90;;;;;;;;;;5094446;28;20416;-74
2021/08/24 14:52:20;;;;;;;7.25;3.25;;;;;;;;;;5094665;28;20157;-75
2021/08/24 14:55:24;;;;;;;7.18;3.30;;;;;;;;;;5076633;28;20425;-75
2021/08/24 14:58:03;;;;;;;6.10;2.97;;;;;;;;;;5085460;28;20028;-77
2021/08/24 15:00:31;;;;;;;7.88;2.90;;;;;;;;;;5094399;28;20103;-77
2021/08/24 15:02:58;;;;;;;6.93;4.72;;;;;;;;;;5094428;28;20024;-77
2021/08/24 15:05:39;;;;;;;7.97;3.42;;;;;;;;;;5094569;28;20020;-77
2021/08/24 15:08:16;;;;;;;7.53;3.15;;;;;;;;;;5094695;28;20028;-78
2021/08/24 15:11:04;;;;;;;8.25;3.22;;;;;;;;;;5094858;28;20030;-77
2021/08/24 15:13:58;;;;;;;6.47;2.85;;;;;;;;;;5116355;28;20023;-76